LVMEP SAME-SADF
Flight info
| Callsign | LVMEP |
|---|---|
| Flight time | N/A |
| Altitude | 25000 |
| Route | KAMUV1C KAMUV UT670 SNT DCT TRINI |
| Aircraft | BE60/L-SDFGRY/C |
Departure
| Time | 2026-04-24 20:06 |
|---|---|
| Airport | Governor Francisco Gabrielli International Airport (SAME) |
Arrival
| Time | N/A |
|---|---|
| Airport | San Fernando Airport (SADF) |
| Time | Latitude | Longitude | Altitude | Speed | Heading |
|---|---|---|---|---|---|
| 2026-04-24 19:53 | -32.82773 | -68.79645 | 2351 ft | 0 kts | 222° |
| 2026-04-24 19:59 | -32.82776 | -68.79649 | 2351 ft | 2 kts | 228° |
| 2026-04-24 19:59 | -32.82803 | -68.79685 | 2352 ft | 9 kts | 228° |
| 2026-04-24 19:59 | -32.82875 | -68.79710 | 2352 ft | 13 kts | 181° |
| 2026-04-24 19:59 | -32.82933 | -68.79668 | 2350 ft | 12 kts | 91° |
| 2026-04-24 20:00 | -32.82970 | -68.79576 | 2347 ft | 14 kts | 139° |
| 2026-04-24 20:00 | -32.83062 | -68.79512 | 2348 ft | 17 kts | 180° |
| 2026-04-24 20:00 | -32.83190 | -68.79515 | 2348 ft | 20 kts | 181° |
| 2026-04-24 20:00 | -32.83335 | -68.79519 | 2351 ft | 22 kts | 181° |
| 2026-04-24 20:01 | -32.83495 | -68.79522 | 2349 ft | 24 kts | 181° |
| 2026-04-24 20:01 | -32.83666 | -68.79526 | 2348 ft | 25 kts | 181° |
| 2026-04-24 20:01 | -32.83847 | -68.79532 | 2349 ft | 26 kts | 181° |
| 2026-04-24 20:01 | -32.84031 | -68.79520 | 2351 ft | 27 kts | 156° |
| 2026-04-24 20:02 | -32.84186 | -68.79451 | 2352 ft | 2 kts | 161° |
| 2026-04-24 20:02 | -32.84187 | -68.79451 | 2352 ft | 0 kts | 161° |
| 2026-04-24 20:03 | -32.84188 | -68.79451 | 2350 ft | 1 kts | 161° |
| 2026-04-24 20:04 | -32.84215 | -68.79439 | 2349 ft | 8 kts | 161° |
| 2026-04-24 20:04 | -32.84280 | -68.79399 | 2352 ft | 13 kts | 140° |
| 2026-04-24 20:04 | -32.84353 | -68.79326 | 2352 ft | 14 kts | 60° |
| 2026-04-24 20:04 | -32.84332 | -68.79314 | 2352 ft | 0 kts | 1° |
| 2026-04-24 20:05 | -32.84268 | -68.79313 | 2350 ft | 38 kts | 1° |
| 2026-04-24 20:05 | -32.83775 | -68.79303 | 2348 ft | 100 kts | 1° |
| 2026-04-24 20:05 | -32.82951 | -68.79280 | 2445 ft | 133 kts | 1° |
| 2026-04-24 20:05 | -32.81973 | -68.79263 | 2694 ft | 147 kts | 2° |
| 2026-04-24 20:06 | -32.80925 | -68.79254 | 2991 ft | 153 kts | 2° |
| 2026-04-24 20:06 | -32.79849 | -68.79241 | 3360 ft | 155 kts | 1° |
| 2026-04-24 20:06 | -32.78772 | -68.79226 | 3732 ft | 154 kts | 1° |
| 2026-04-24 20:06 | -32.77700 | -68.79201 | 4061 ft | 154 kts | 4° |
| 2026-04-24 20:07 | -32.77023 | -68.78973 | 4267 ft | 155 kts | 33° |
| 2026-04-24 20:07 | -32.76393 | -68.77513 | 4727 ft | 155 kts | 91° |
| 2026-04-24 20:07 | -32.76568 | -68.76249 | 5102 ft | 155 kts | 101° |
| 2026-04-24 20:07 | -32.76766 | -68.74985 | 5464 ft | 156 kts | 100° |
| 2026-04-24 20:08 | -32.76947 | -68.73703 | 5819 ft | 158 kts | 100° |
| 2026-04-24 20:08 | -32.77129 | -68.72408 | 6157 ft | 159 kts | 100° |
| 2026-04-24 20:08 | -32.77311 | -68.71104 | 6512 ft | 161 kts | 101° |
| 2026-04-24 20:08 | -32.77493 | -68.69804 | 6843 ft | 162 kts | 101° |
| 2026-04-24 20:09 | -32.77680 | -68.68473 | 7164 ft | 164 kts | 101° |
| 2026-04-24 20:09 | -32.77867 | -68.67129 | 7514 ft | 165 kts | 100° |
| 2026-04-24 20:09 | -32.78053 | -68.65775 | 7858 ft | 167 kts | 101° |
| 2026-04-24 20:09 | -32.78244 | -68.64411 | 8206 ft | 168 kts | 100° |
| 2026-04-24 20:10 | -32.78436 | -68.63033 | 8566 ft | 169 kts | 100° |
| 2026-04-24 20:10 | -32.78630 | -68.61644 | 8914 ft | 171 kts | 100° |
| 2026-04-24 20:10 | -32.78824 | -68.60246 | 9269 ft | 172 kts | 100° |
| 2026-04-24 20:10 | -32.79019 | -68.58841 | 9639 ft | 173 kts | 99° |
| 2026-04-24 20:11 | -32.79216 | -68.57423 | 9978 ft | 174 kts | 99° |
| 2026-04-24 20:11 | -32.79413 | -68.55998 | 10304 ft | 175 kts | 100° |
| 2026-04-24 20:11 | -32.79609 | -68.54582 | 10634 ft | 176 kts | 100° |
| 2026-04-24 20:11 | -32.79809 | -68.53137 | 10961 ft | 178 kts | 100° |
| 2026-04-24 20:12 | -32.80010 | -68.51682 | 11295 ft | 179 kts | 100° |
| 2026-04-24 20:12 | -32.80213 | -68.50213 | 11631 ft | 181 kts | 100° |
| 2026-04-24 20:12 | -32.80351 | -68.49212 | 11854 ft | 182 kts | 100° |
| 2026-04-24 20:12 | -32.80624 | -68.47235 | 12303 ft | 184 kts | 100° |
| 2026-04-24 20:13 | -32.80832 | -68.45723 | 12640 ft | 186 kts | 100° |
| 2026-04-24 20:13 | -32.81042 | -68.44199 | 12985 ft | 188 kts | 100° |
| 2026-04-24 20:13 | -32.81254 | -68.42660 | 13327 ft | 189 kts | 100° |
| 2026-04-24 20:13 | -32.81466 | -68.41111 | 13681 ft | 191 kts | 100° |
| 2026-04-24 20:14 | -32.81680 | -68.39548 | 14009 ft | 192 kts | 101° |
| 2026-04-24 20:14 | -32.81896 | -68.37972 | 14328 ft | 194 kts | 101° |
| 2026-04-24 20:14 | -32.82114 | -68.36383 | 14636 ft | 196 kts | 101° |
| 2026-04-24 20:14 | -32.82335 | -68.34777 | 14953 ft | 198 kts | 101° |
| 2026-04-24 20:15 | -32.82556 | -68.33158 | 15271 ft | 199 kts | 101° |
| 2026-04-24 20:15 | -32.82779 | -68.31521 | 15594 ft | 201 kts | 101° |
| 2026-04-24 20:15 | -32.83004 | -68.29871 | 15916 ft | 203 kts | 101° |
| 2026-04-24 20:15 | -32.83231 | -68.28206 | 16236 ft | 205 kts | 101° |
| 2026-04-24 20:16 | -32.83456 | -68.26549 | 16557 ft | 206 kts | 102° |
| 2026-04-24 20:16 | -32.83687 | -68.24852 | 16886 ft | 208 kts | 102° |
| 2026-04-24 20:16 | -32.83920 | -68.23139 | 17220 ft | 210 kts | 102° |
| 2026-04-24 20:16 | -32.84154 | -68.21414 | 17549 ft | 212 kts | 102° |
| 2026-04-24 20:17 | -32.84390 | -68.19670 | 17891 ft | 214 kts | 102° |
| 2026-04-24 20:17 | -32.84869 | -68.16135 | 18531 ft | 218 kts | 102° |
| 2026-04-24 20:17 | -32.85110 | -68.14346 | 18832 ft | 220 kts | 102° |
| 2026-04-24 20:18 | -32.85271 | -68.13157 | 19032 ft | 221 kts | 102° |
| 2026-04-24 20:18 | -32.85594 | -68.10759 | 19441 ft | 223 kts | 102° |
| 2026-04-24 20:18 | -32.85840 | -68.08937 | 19755 ft | 224 kts | 102° |
| 2026-04-24 20:18 | -32.86087 | -68.07101 | 20066 ft | 226 kts | 102° |
| 2026-04-24 20:19 | -32.86336 | -68.05245 | 20352 ft | 228 kts | 102° |
| 2026-04-24 20:19 | -32.86588 | -68.03367 | 20652 ft | 230 kts | 102° |
| 2026-04-24 20:19 | -32.86840 | -68.01483 | 20953 ft | 231 kts | 102° |
| 2026-04-24 20:19 | -32.87092 | -67.99599 | 21247 ft | 231 kts | 102° |
| 2026-04-24 20:20 | -32.87345 | -67.97711 | 21539 ft | 231 kts | 101° |
| 2026-04-24 20:20 | -32.87597 | -67.95821 | 21819 ft | 231 kts | 101° |
| 2026-04-24 20:20 | -32.87849 | -67.93933 | 22092 ft | 230 kts | 101° |
| 2026-04-24 20:20 | -32.88097 | -67.92074 | 22347 ft | 230 kts | 101° |
| 2026-04-24 20:21 | -32.88347 | -67.90195 | 22580 ft | 231 kts | 101° |
| 2026-04-24 20:21 | -32.88602 | -67.88282 | 22767 ft | 236 kts | 101° |
| 2026-04-24 20:21 | -32.88859 | -67.86345 | 22978 ft | 238 kts | 101° |
| 2026-04-24 20:21 | -32.89118 | -67.84392 | 23195 ft | 240 kts | 101° |
| 2026-04-24 20:22 | -32.89378 | -67.82425 | 23408 ft | 240 kts | 101° |
| 2026-04-24 20:22 | -32.89639 | -67.80457 | 23593 ft | 242 kts | 101° |
| 2026-04-24 20:22 | -32.89900 | -67.78476 | 23735 ft | 243 kts | 101° |
| 2026-04-24 20:22 | -32.90163 | -67.76483 | 23879 ft | 244 kts | 101° |
| 2026-04-24 20:23 | -32.90427 | -67.74484 | 24020 ft | 245 kts | 101° |
| 2026-04-24 20:23 | -32.90691 | -67.72477 | 24157 ft | 245 kts | 101° |
| 2026-04-24 20:23 | -32.90957 | -67.70467 | 24296 ft | 245 kts | 102° |
| 2026-04-24 20:23 | -32.91337 | -67.68493 | 24424 ft | 245 kts | 107° |
| 2026-04-24 20:24 | -32.91595 | -67.67190 | 24506 ft | 245 kts | 106° |
| 2026-04-24 20:24 | -32.92107 | -67.64541 | 24667 ft | 245 kts | 106° |
| 2026-04-24 20:24 | -32.92486 | -67.62591 | 24789 ft | 245 kts | 106° |
| 2026-04-24 20:24 | -32.92873 | -67.60613 | 24904 ft | 245 kts | 106° |
| 2026-04-24 20:25 | -32.93260 | -67.58633 | 24969 ft | 248 kts | 106° |
| 2026-04-24 20:25 | -32.93653 | -67.56615 | 24972 ft | 253 kts | 106° |
| 2026-04-24 20:25 | -32.93788 | -67.55922 | 24976 ft | 255 kts | 106° |
| 2026-04-24 20:25 | -32.94460 | -67.52463 | 24981 ft | 262 kts | 105° |
| 2026-04-24 20:26 | -32.94873 | -67.50336 | 24986 ft | 265 kts | 105° |
| 2026-04-24 20:26 | -32.95291 | -67.48186 | 24985 ft | 268 kts | 105° |
| 2026-04-24 20:26 | -32.95713 | -67.46009 | 24978 ft | 271 kts | 105° |
| 2026-04-24 20:26 | -32.96137 | -67.43814 | 24983 ft | 273 kts | 105° |
| 2026-04-24 20:27 | -32.96564 | -67.41608 | 24986 ft | 274 kts | 105° |
| 2026-04-24 20:27 | -32.96994 | -67.39386 | 24984 ft | 276 kts | 105° |
| 2026-04-24 20:27 | -32.97424 | -67.37157 | 24986 ft | 277 kts | 105° |
| 2026-04-24 20:27 | -32.97856 | -67.34920 | 24985 ft | 277 kts | 105° |
| 2026-04-24 20:28 | -32.98289 | -67.32675 | 24988 ft | 280 kts | 105° |
| 2026-04-24 20:28 | -32.98727 | -67.30404 | 24990 ft | 290 kts | 105° |
| 2026-04-24 20:28 | -32.99180 | -67.28036 | 24988 ft | 297 kts | 105° |
| 2026-04-24 20:28 | -32.99644 | -67.25621 | 24994 ft | 303 kts | 105° |
| 2026-04-24 20:29 | -32.99964 | -67.23963 | 24993 ft | 304 kts | 105° |
| 2026-04-24 20:29 | -33.00589 | -67.20698 | 24993 ft | 305 kts | 105° |
| 2026-04-24 20:29 | -33.01062 | -67.18226 | 24994 ft | 306 kts | 105° |
| 2026-04-24 20:29 | -33.01535 | -67.15748 | 24996 ft | 307 kts | 105° |
| 2026-04-24 20:30 | -33.02011 | -67.13261 | 24996 ft | 308 kts | 105° |
| 2026-04-24 20:30 | -33.02487 | -67.10767 | 24997 ft | 309 kts | 105° |
| 2026-04-24 20:30 | -33.02963 | -67.08266 | 24998 ft | 310 kts | 105° |
| 2026-04-24 20:30 | -33.03439 | -67.05765 | 24998 ft | 310 kts | 105° |
| 2026-04-24 20:31 | -33.03916 | -67.03253 | 24998 ft | 311 kts | 105° |
| 2026-04-24 20:31 | -33.04394 | -67.00741 | 25000 ft | 311 kts | 105° |
| 2026-04-24 20:31 | -33.04872 | -66.98220 | 25004 ft | 312 kts | 104° |
| 2026-04-24 20:31 | -33.05349 | -66.95700 | 24999 ft | 312 kts | 104° |
| 2026-04-24 20:32 | -33.05827 | -66.93173 | 25000 ft | 312 kts | 104° |
| 2026-04-24 20:32 | -33.06305 | -66.90648 | 25002 ft | 312 kts | 104° |
| 2026-04-24 20:32 | -33.06783 | -66.88115 | 25002 ft | 312 kts | 104° |
| 2026-04-24 20:32 | -33.07256 | -66.85603 | 25001 ft | 309 kts | 104° |
| 2026-04-24 20:33 | -33.07724 | -66.83118 | 25004 ft | 305 kts | 104° |
| 2026-04-24 20:33 | -33.08188 | -66.80659 | 25000 ft | 302 kts | 105° |
| 2026-04-24 20:33 | -33.08645 | -66.78255 | 24998 ft | 300 kts | 105° |
| 2026-04-24 20:33 | -33.09104 | -66.75834 | 24995 ft | 298 kts | 104° |
| 2026-04-24 20:34 | -33.09560 | -66.73423 | 24995 ft | 297 kts | 104° |
| 2026-04-24 20:34 | -33.10012 | -66.71028 | 24995 ft | 295 kts | 104° |
| 2026-04-24 20:34 | -33.10463 | -66.68639 | 24994 ft | 294 kts | 105° |
| 2026-04-24 20:34 | -33.10910 | -66.66266 | 25004 ft | 293 kts | 104° |
| 2026-04-24 20:35 | -33.11356 | -66.63897 | 25008 ft | 292 kts | 104° |
| 2026-04-24 20:35 | -33.11802 | -66.61528 | 25008 ft | 291 kts | 105° |
| 2026-04-24 20:35 | -33.12244 | -66.59173 | 25008 ft | 291 kts | 104° |
| 2026-04-24 20:35 | -33.12686 | -66.56817 | 25011 ft | 290 kts | 104° |
| 2026-04-24 20:36 | -33.13128 | -66.54464 | 25017 ft | 290 kts | 104° |
| 2026-04-24 20:36 | -33.13566 | -66.52120 | 25020 ft | 290 kts | 105° |
| 2026-04-24 20:36 | -33.14000 | -66.49802 | 25023 ft | 290 kts | 105° |
| 2026-04-24 20:36 | -33.14439 | -66.47456 | 25031 ft | 290 kts | 104° |
| 2026-04-24 20:37 | -33.14877 | -66.45103 | 25031 ft | 290 kts | 104° |
| 2026-04-24 20:37 | -33.15315 | -66.42756 | 25038 ft | 290 kts | 104° |
| 2026-04-24 20:37 | -33.15752 | -66.40408 | 25036 ft | 290 kts | 104° |
| 2026-04-24 20:37 | -33.16189 | -66.38059 | 25038 ft | 290 kts | 104° |
| 2026-04-24 20:38 | -33.16627 | -66.35700 | 25041 ft | 290 kts | 104° |
| 2026-04-24 20:38 | -33.17064 | -66.33348 | 25039 ft | 290 kts | 104° |
| 2026-04-24 20:38 | -33.17501 | -66.30991 | 25042 ft | 290 kts | 104° |
| 2026-04-24 20:38 | -33.17937 | -66.28635 | 25044 ft | 291 kts | 104° |
| 2026-04-24 20:39 | -33.18373 | -66.26277 | 25041 ft | 291 kts | 104° |
| 2026-04-24 20:39 | -33.18810 | -66.23914 | 25042 ft | 292 kts | 104° |
| 2026-04-24 20:39 | -33.19247 | -66.21546 | 25049 ft | 293 kts | 104° |
| 2026-04-24 20:39 | -33.19686 | -66.19168 | 25040 ft | 293 kts | 104° |
| 2026-04-24 20:40 | -33.20124 | -66.16787 | 25037 ft | 293 kts | 104° |
| 2026-04-24 20:40 | -33.20560 | -66.14416 | 25035 ft | 292 kts | 104° |
| 2026-04-24 20:40 | -33.20997 | -66.12047 | 25033 ft | 292 kts | 104° |
| 2026-04-24 20:40 | -33.21427 | -66.09706 | 25031 ft | 292 kts | 105° |
| 2026-04-24 20:41 | -33.21860 | -66.07344 | 25027 ft | 291 kts | 104° |
| 2026-04-24 20:41 | -33.22293 | -66.04983 | 25024 ft | 290 kts | 104° |
| 2026-04-24 20:41 | -33.22724 | -66.02630 | 25025 ft | 290 kts | 104° |
| 2026-04-24 20:41 | -33.23155 | -66.00276 | 25023 ft | 290 kts | 104° |
| 2026-04-24 20:42 | -33.23585 | -65.97924 | 25020 ft | 290 kts | 104° |
| 2026-04-24 20:42 | -33.24015 | -65.95564 | 25018 ft | 290 kts | 104° |
| 2026-04-24 20:42 | -33.24444 | -65.93213 | 25016 ft | 290 kts | 104° |
| 2026-04-24 20:42 | -33.24873 | -65.90860 | 25015 ft | 290 kts | 104° |
| 2026-04-24 20:43 | -33.25302 | -65.88502 | 25013 ft | 290 kts | 104° |
| 2026-04-24 20:43 | -33.25586 | -65.86941 | 25017 ft | 291 kts | 104° |
| 2026-04-24 20:43 | -33.26161 | -65.83776 | 25017 ft | 292 kts | 104° |
| 2026-04-24 20:43 | -33.26446 | -65.82202 | 25015 ft | 292 kts | 104° |
| 2026-04-24 20:44 | -33.27015 | -65.79059 | 25014 ft | 292 kts | 104° |
| 2026-04-24 20:44 | -33.27445 | -65.76680 | 25014 ft | 292 kts | 104° |
| 2026-04-24 20:44 | -33.27735 | -65.75073 | 25014 ft | 292 kts | 104° |
| 2026-04-24 20:44 | -33.28160 | -65.72721 | 25015 ft | 292 kts | 104° |
| 2026-04-24 20:45 | -33.28589 | -65.70345 | 25015 ft | 292 kts | 104° |
| 2026-04-24 20:45 | -33.29016 | -65.67970 | 25015 ft | 292 kts | 104° |
| 2026-04-24 20:45 | -33.29444 | -65.65596 | 25012 ft | 292 kts | 104° |
| 2026-04-24 20:45 | -33.29871 | -65.63218 | 25018 ft | 292 kts | 104° |
| 2026-04-24 20:46 | -33.30298 | -65.60839 | 25015 ft | 292 kts | 104° |
| 2026-04-24 20:46 | -33.30720 | -65.58484 | 25015 ft | 292 kts | 104° |
| 2026-04-24 20:46 | -33.31147 | -65.56102 | 25017 ft | 292 kts | 104° |
| 2026-04-24 20:46 | -33.31572 | -65.53724 | 25024 ft | 292 kts | 104° |
| 2026-04-24 20:47 | -33.31997 | -65.51344 | 25016 ft | 292 kts | 104° |
| 2026-04-24 20:47 | -33.32422 | -65.48966 | 25021 ft | 292 kts | 104° |
| 2026-04-24 20:47 | -33.32846 | -65.46588 | 25017 ft | 292 kts | 104° |
| 2026-04-24 20:47 | -33.33269 | -65.44214 | 25016 ft | 292 kts | 104° |
| 2026-04-24 20:48 | -33.33692 | -65.41833 | 25019 ft | 292 kts | 104° |
| 2026-04-24 20:48 | -33.34109 | -65.39483 | 25017 ft | 292 kts | 104° |
| 2026-04-24 20:48 | -33.34530 | -65.37113 | 25016 ft | 292 kts | 104° |
| 2026-04-24 20:48 | -33.34951 | -65.34736 | 25017 ft | 291 kts | 104° |
| 2026-04-24 20:49 | -33.35371 | -65.32365 | 25016 ft | 291 kts | 104° |
| 2026-04-24 20:49 | -33.35790 | -65.29993 | 25024 ft | 291 kts | 104° |
| 2026-04-24 20:49 | -33.36208 | -65.27623 | 25023 ft | 291 kts | 104° |
| 2026-04-24 20:49 | -33.36627 | -65.25253 | 25020 ft | 291 kts | 104° |